Terminal Aerodrome Forecast
Issued by NWS Atlanta, GA

Home | Current Version | Previous Version | Text Only | Print | Product List | Glossary On
Versions: 1 2 3 4 5 6 7 8 9 10 11 12 13 14 15 16 17 18 19 20 21 22 23
000
FTUS42 KFFC 011936 AAA
TAFCSG
TAF AMD
KCSG 011936Z 0120/0218 26009KT P6SM VCSH SCT030
      TEMPO 0121/0201 VRB15G25KT 4SM TSRA BKN035CB
     FM020200 28006KT P6SM BKN100
     FM020800 26005KT P6SM SCT015 BKN050
     FM021400 27008KT P6SM BKN050
     FM021600 26007KT P6SM VCSH BKN050 PROB30 0216/0218 6SM TSRA
      BKN035CB=

USA.gov is the U.S. government's official web portal to all federal, state and local government web resources and services.